KFLP

Marion County Regional Airport

Flippin, Arkansas, USA
METAR KFLP 240156Z AUTO 00000KT 10SM CLR 20/19 A3009 RMK AO2 SLP184 T02000189 PNO $
Observed Flight Rules
May-24 @ 01:56 UTC (24 minutes ago) Visual Flight Rules
Visibility Clouds
10 miles
  • Clear skies
Temperatures Readings
Current 20°C / 68°F
Dewpoint 19°C / 66°F
Humidity 94%
Altimeter 30.09" Hg
Pressure 1018.4 hPa
Elevation 219
METAR KFLP 240156Z AUTO 00000KT 10SM CLR 20/19 A3009 RMK AO2 SLP184 T02000189 PNO $
Observed Flight Rules
May-24 @ 01:56 UTC
(24 minutes ago)
VFR
Clouds
  • Clear skies
Temperature Dewpoint
20°C / 68°F 19°C / 66°F
Humidity Altimeter Pressure
94% 30.09" Hg 1018.4 hPa